Time;durP1;ratioP1;P1;durP2;ratioP2;P2;SDS_P1;SDS_P2;PMS_P1;PMS_P2;Temp;Humidity;BMP_temperature;BMP_pressure;BME280_temperature;BME280_humidity;BME280_pressure;Samples;Min_cycle;Max_cycle;Signal;HPM_P1;HPM_P2
2021/10/07 00:00:33;;;;;;;18.97;11.20;;;;;;;15.10;93.30;101461.91;4992417;58;21225;-81
2021/10/07 00:05:40;;;;;;;12.20;9.60;;;;;;;15.12;93.77;101467.94;4992527;58;21186;-77
2021/10/07 00:10:46;;;;;;;9.67;8.20;;;;;;;15.06;93.45;101475.60;4992487;58;22024;-77
2021/10/07 00:15:52;;;;;;;10.03;7.53;;;;;;;15.01;93.40;101485.77;4992502;58;21526;-78
2021/10/07 00:20:58;;;;;;;9.63;6.80;;;;;;;15.00;93.50;101478.75;4992768;58;21518;-77
2021/10/07 00:26:03;;;;;;;7.93;7.20;;;;;;;15.03;93.62;101486.02;5026432;58;21092;-78
2021/10/07 00:31:16;;;;;;;9.63;7.80;;;;;;;15.01;93.58;101493.28;5086725;58;21185;-78
2021/10/07 00:36:37;;;;;;;8.60;7.73;;;;;;;14.93;93.12;101501.55;5113795;57;21193;-79
2021/10/07 00:41:24;;;;;;;9.30;8.07;;;;;;;14.81;93.11;101502.53;5110201;57;21163;-79
2021/10/07 00:46:31;;;;;;;12.50;9.03;;;;;;;14.71;93.28;101504.58;5114015;58;21182;-80
2021/10/07 00:51:36;;;;;;;13.87;9.07;;;;;;;14.75;93.98;101507.36;5113497;58;21190;-81
2021/10/07 00:56:44;;;;;;;13.47;9.67;;;;;;;14.77;94.08;101512.09;5114645;57;21224;-77
2021/10/07 01:01:49;;;;;;;16.40;11.40;;;;;;;14.82;93.99;101513.03;5113515;58;21961;-79
2021/10/07 01:06:55;;;;;;;20.07;11.30;;;;;;;14.92;94.56;101515.34;5114137;58;21151;-77
2021/10/07 01:12:03;;;;;;;15.63;12.37;;;;;;;14.99;94.79;101513.02;5114570;57;21647;-78
2021/10/07 01:17:12;;;;;;;18.37;10.67;;;;;;;14.99;94.49;101511.20;5113872;58;22074;-78
2021/10/07 01:22:21;;;;;;;17.60;10.73;;;;;;;14.92;93.85;101512.68;5113982;57;21170;-79
2021/10/07 01:27:29;;;;;;;12.47;10.37;;;;;;;14.89;94.23;101504.93;5132535;57;21163;-78
2021/10/07 01:32:38;;;;;;;15.03;9.73;;;;;;;14.90;94.20;101507.11;5137994;57;21111;-79
2021/10/07 01:37:44;;;;;;;12.13;9.00;;;;;;;14.89;94.10;101503.59;5138225;57;21100;-78
2021/10/07 01:42:50;;;;;;;13.57;9.20;;;;;;;14.94;94.36;101501.91;5138202;57;21159;-78
2021/10/07 01:47:56;;;;;;;16.10;10.37;;;;;;;14.92;94.26;101499.36;5137988;57;21688;-77
2021/10/07 01:53:03;;;;;;;13.20;9.80;;;;;;;14.80;93.95;101505.67;5138161;57;21103;-79
2021/10/07 01:58:08;;;;;;;15.50;10.10;;;;;;;14.81;94.54;101509.19;5138167;57;21202;-79
2021/10/07 02:03:14;;;;;;;12.10;10.73;;;;;;;14.85;94.69;101508.80;5138073;57;21777;-78
2021/10/07 02:08:20;;;;;;;16.37;12.10;;;;;;;14.95;95.18;101516.92;5137956;57;21608;-80
2021/10/07 02:13:26;;;;;;;14.20;11.93;;;;;;;15.03;95.33;101515.32;5138067;57;21159;-79
2021/10/07 02:18:32;;;;;;;15.40;12.27;;;;;;;15.05;94.87;101523.20;5138054;57;21162;-79
2021/10/07 02:23:38;;;;;;;18.10;13.27;;;;;;;15.09;95.00;101527.31;5137730;57;21501;-80
2021/10/07 02:28:44;;;;;;;18.73;14.40;;;;;;;15.10;94.65;101527.20;5124720;58;21157;-79
2021/10/07 02:33:50;;;;;;;23.17;15.47;;;;;;;15.10;94.47;101533.01;5107405;57;21581;-77
2021/10/07 02:38:56;;;;;;;19.60;16.00;;;;;;;15.05;94.14;101539.18;5097848;58;21127;-78
2021/10/07 02:44:03;;;;;;;27.63;16.50;;;;;;;15.02;94.79;101540.75;5090166;58;22481;-79
2021/10/07 02:49:09;;;;;;;27.60;18.07;;;;;;;15.00;94.32;101547.53;5090083;58;21757;-77
2021/10/07 02:54:15;;;;;;;22.90;18.77;;;;;;;14.96;94.47;101543.92;5090236;58;21182;-79
2021/10/07 02:59:22;;;;;;;28.20;20.10;;;;;;;14.89;94.37;101554.20;5101610;58;21107;-78
2021/10/07 03:04:28;;;;;;;29.30;21.00;;;;;;;14.93;94.86;101561.00;5101443;58;21166;-77
2021/10/07 03:09:34;;;;;;;33.93;24.77;;;;;;;14.95;94.86;101559.06;5101572;58;21111;-76
2021/10/07 03:14:42;;;;;;;37.13;24.10;;;;;;;14.89;94.83;101562.20;5101650;58;21536;-77
2021/10/07 03:19:47;;;;;;;39.07;24.87;;;;;;;14.89;94.86;101568.01;5101474;58;21185;-81
2021/10/07 03:24:53;;;;;;;40.27;27.03;;;;;;;14.84;94.79;101573.69;5080058;58;21174;-79
2021/10/07 03:29:59;;;;;;;41.27;28.47;;;;;;;14.83;94.77;101579.13;4978019;59;21122;-78
2021/10/07 03:35:06;;;;;;;38.40;24.30;;;;;;;14.88;95.20;101588.95;5049220;58;21160;-79
2021/10/07 03:40:13;;;;;;;44.93;28.73;;;;;;;14.89;94.84;101598.16;5060405;58;21100;-78
2021/10/07 03:45:18;;;;;;;41.83;26.93;;;;;;;14.77;94.53;101598.64;5001053;58;21496;-77
2021/10/07 03:50:24;;;;;;;40.40;26.63;;;;;;;14.83;95.20;101601.28;5102948;57;21159;-77
2021/10/07 03:55:30;;;;;;;42.37;27.67;;;;;;;14.87;95.07;101593.43;5104251;57;21093;-76
2021/10/07 04:00:36;;;;;;;36.77;24.83;;;;;;;14.88;95.17;101599.13;5100427;57;22045;-77
2021/10/07 04:05:42;;;;;;;37.07;25.30;;;;;;;14.82;94.77;101610.24;5099933;57;21112;-78
2021/10/07 04:10:51;;;;;;;35.47;23.77;;;;;;;14.75;94.69;101617.03;5100055;57;21195;-79
2021/10/07 04:15:57;;;;;;;40.37;25.73;;;;;;;14.68;94.45;101623.30;5087713;57;21772;-78
2021/10/07 04:21:04;;;;;;;38.37;25.27;;;;;;;14.60;94.67;101634.19;5092173;57;21179;-78
2021/10/07 04:26:09;;;;;;;34.97;23.53;;;;;;;14.53;94.83;101639.12;5080403;57;21178;-79
2021/10/07 04:31:15;;;;;;;48.70;30.20;;;;;;;14.50;94.73;101641.20;5098829;57;21563;-78
2021/10/07 04:36:21;;;;;;;38.67;26.33;;;;;;;14.48;95.06;101639.98;5114943;58;21091;-78
2021/10/07 04:41:28;;;;;;;33.60;23.83;;;;;;;14.46;95.18;101645.05;5107849;58;21376;-78
2021/10/07 04:46:33;;;;;;;44.20;27.10;;;;;;;14.40;95.12;101651.19;5115097;58;21168;-78
2021/10/07 04:51:39;;;;;;;45.10;29.53;;;;;;;14.29;94.94;101655.12;5115706;58;21151;-78
2021/10/07 04:56:45;;;;;;;44.20;26.93;;;;;;;14.29;95.36;101663.10;5115422;58;22078;-78
2021/10/07 05:01:51;;;;;;;41.20;26.03;;;;;;;14.33;95.30;101673.05;5115864;57;21151;-79
2021/10/07 05:06:56;;;;;;;31.30;20.67;;;;;;;14.38;95.36;101682.36;5115386;58;21163;-79
2021/10/07 05:12:03;;;;;;;52.37;30.20;;;;;;;14.31;95.16;101682.95;5113603;58;21569;-79
2021/10/07 05:17:09;;;;;;;43.80;26.20;;;;;;;14.29;95.24;101694.19;5115609;58;21188;-77
2021/10/07 05:22:15;;;;;;;36.27;26.37;;;;;;;14.28;95.22;101694.67;5117371;58;21649;-77
2021/10/07 05:27:21;;;;;;;48.77;28.90;;;;;;;14.33;95.50;101706.31;5098798;58;21174;-78
2021/10/07 05:32:26;;;;;;;48.33;28.57;;;;;;;14.29;95.12;101719.47;5093906;58;21628;-77
2021/10/07 05:37:32;;;;;;;42.67;25.80;;;;;;;14.24;95.40;101722.46;5093998;58;21143;-80
2021/10/07 05:42:39;;;;;;;45.90;23.93;;;;;;;14.23;95.18;101725.23;5093896;58;21155;-78
2021/10/07 05:47:45;;;;;;;53.03;24.93;;;;;;;14.15;95.03;101723.15;5093809;58;21771;-79
2021/10/07 05:52:50;;;;;;;42.00;22.40;;;;;;;14.11;94.70;101725.66;5093811;58;21553;-79
2021/10/07 05:57:56;;;;;;;44.40;20.67;;;;;;;14.04;94.52;101741.23;5093605;58;21162;-78
2021/10/07 06:03:02;;;;;;;48.00;22.97;;;;;;;13.95;94.29;101745.02;5093641;58;21834;-79
2021/10/07 06:08:09;;;;;;;46.10;22.53;;;;;;;13.90;94.45;101757.31;5093541;58;21151;-78
2021/10/07 06:13:14;;;;;;;44.23;23.90;;;;;;;13.85;94.76;101759.95;5112825;57;21427;-78
2021/10/07 06:18:20;;;;;;;35.77;18.43;;;;;;;13.92;95.03;101767.36;5117728;57;21509;-79
2021/10/07 06:23:26;;;;;;;43.80;20.43;;;;;;;13.91;94.89;101769.66;5117959;57;21152;-78
2021/10/07 06:28:31;;;;;;;36.67;19.70;;;;;;;13.82;94.65;101761.02;5093531;58;21178;-79
2021/10/07 06:33:37;;;;;;;29.90;18.13;;;;;;;13.80;94.95;101765.59;5094621;58;21530;-78
2021/10/07 06:38:42;;;;;;;26.27;16.43;;;;;;;13.83;94.97;101767.19;5101248;58;21135;-79
2021/10/07 06:43:48;;;;;;;32.30;20.10;;;;;;;13.83;94.90;101772.50;5101302;58;21162;-79
2021/10/07 06:48:55;;;;;;;31.00;19.47;;;;;;;13.79;94.76;101787.82;5101274;58;21158;-79
2021/10/07 06:54:02;;;;;;;26.33;19.70;;;;;;;13.85;95.08;101783.88;5041146;58;21108;-78
2021/10/07 06:59:09;;;;;;;26.90;19.53;;;;;;;13.80;94.66;101789.52;5019350;58;21486;-78
2021/10/07 07:04:17;;;;;;;38.00;21.50;;;;;;;13.73;94.64;101806.41;5017441;59;21182;-78
2021/10/07 07:09:23;;;;;;;33.73;21.00;;;;;;;13.71;95.02;101808.80;5018875;58;21166;-79
2021/10/07 07:14:28;;;;;;;21.60;14.70;;;;;;;13.69;94.92;101817.36;5015251;59;21211;-82
2021/10/07 07:19:34;;;;;;;31.63;21.50;;;;;;;13.74;94.99;101824.54;5019361;59;21575;-79
2021/10/07 07:24:40;;;;;;;38.17;22.30;;;;;;;13.71;94.83;101827.41;5019111;58;21561;-78
2021/10/07 07:29:45;;;;;;;40.77;24.70;;;;;;;13.79;95.00;101834.83;5019283;59;21170;-80
2021/10/07 07:34:51;;;;;;;52.17;29.97;;;;;;;13.91;95.10;101832.16;5029352;57;21708;-78
2021/10/07 07:39:57;;;;;;;40.80;27.10;;;;;;;14.05;95.54;101846.66;5068952;57;21105;-78
2021/10/07 07:45:05;;;;;;;45.70;28.17;;;;;;;14.22;95.11;101845.94;5068707;57;21216;-84
2021/10/07 07:50:12;;;;;;;51.30;28.13;;;;;;;14.24;94.33;101852.00;5005953;57;21232;-82
2021/10/07 07:55:19;;;;;;;34.97;22.97;;;;;;;14.20;93.80;101843.41;5034531;58;21096;-83
2021/10/07 08:00:25;;;;;;;32.67;21.30;;;;;;;14.16;93.02;101847.72;5050494;58;21093;-82
2021/10/07 08:05:31;;;;;;;36.93;22.83;;;;;;;14.15;92.76;101852.19;5085979;57;21157;-84
2021/10/07 08:10:37;;;;;;;40.53;19.70;;;;;;;14.12;93.23;101857.73;5156500;57;21188;-84
2021/10/07 08:15:43;;;;;;;25.57;18.23;;;;;;;14.48;93.98;101858.75;5156637;57;21152;-83
2021/10/07 08:20:52;;;;;;;34.63;17.90;;;;;;;14.76;92.74;101869.92;5156453;57;21149;-85
2021/10/07 08:25:57;;;;;;;26.17;15.27;;;;;;;14.97;91.60;101870.64;5116691;57;21199;-85
2021/10/07 08:31:03;;;;;;;23.60;12.87;;;;;;;15.24;90.21;101876.55;5066437;57;21226;-84
2021/10/07 08:36:09;;;;;;;26.93;15.20;;;;;;;15.25;86.93;101870.74;5061133;57;21520;-83
2021/10/07 08:41:16;;;;;;;28.53;15.60;;;;;;;15.26;88.20;101863.11;5058177;57;21546;-84
2021/10/07 08:46:22;;;;;;;23.30;11.93;;;;;;;15.32;86.65;101861.30;5046520;57;21216;-83
2021/10/07 08:51:28;;;;;;;19.43;14.33;;;;;;;15.31;85.96;101867.59;5060928;57;21184;-84
2021/10/07 08:56:34;;;;;;;35.10;15.33;;;;;;;15.10;85.26;101878.08;5062176;57;21183;-84
2021/10/07 09:01:44;;;;;;;32.63;15.60;;;;;;;14.84;85.78;101887.98;5065249;57;21232;-82
2021/10/07 09:06:54;;;;;;;25.27;16.30;;;;;;;14.80;86.86;101887.02;5065080;57;21470;-83
2021/10/07 09:12:05;;;;;;;24.40;15.97;;;;;;;14.91;86.36;101886.58;5061693;57;21215;-83
2021/10/07 09:17:14;;;;;;;31.90;16.17;;;;;;;15.03;85.07;101876.82;4957417;59;21147;-82
2021/10/07 09:22:28;;;;;;;29.47;16.83;;;;;;;15.12;84.54;101878.81;4958327;59;21515;-83
2021/10/07 09:27:37;;;;;;;28.87;15.93;;;;;;;15.22;84.78;101886.48;4977399;58;22659;-83
2021/10/07 09:32:47;;;;;;;25.77;14.57;;;;;;;15.25;85.05;101884.92;4953529;58;21139;-81
2021/10/07 09:37:57;;;;;;;38.60;22.67;;;;;;;15.29;85.62;101893.51;4929668;59;21205;-81
2021/10/07 09:43:03;;;;;;;31.67;16.07;;;;;;;15.36;85.73;101894.28;4952140;59;21807;-81
2021/10/07 09:48:10;;;;;;;22.23;15.10;;;;;;;15.30;84.67;101892.06;4970065;59;21430;-80
2021/10/07 09:53:18;;;;;;;39.87;19.67;;;;;;;15.19;84.53;101896.03;4948946;58;21190;-81
2021/10/07 09:58:26;;;;;;;26.73;17.93;;;;;;;15.11;84.72;101898.44;5011401;58;21185;-83
2021/10/07 10:03:31;;;;;;;33.17;18.13;;;;;;;15.08;83.99;101899.98;4890381;60;21135;-84
2021/10/07 10:08:37;;;;;;;23.13;13.80;;;;;;;15.06;84.22;101905.91;5011616;58;21736;-82
2021/10/07 10:13:44;;;;;;;24.70;15.80;;;;;;;15.05;84.18;101908.20;5015790;58;21221;-82
2021/10/07 10:18:57;;;;;;;33.13;16.73;;;;;;;15.00;82.49;101915.68;5012696;58;21181;-82
2021/10/07 10:24:05;;;;;;;22.02;14.75;;;;;;;14.99;82.56;101917.97;5009542;58;22498;-81
2021/10/07 10:29:22;;;;;;;21.60;14.17;;;;;;;14.97;83.56;101924.74;4999821;58;21127;-84
2021/10/07 10:34:29;;;;;;;33.87;16.60;;;;;;;15.05;83.12;101933.04;5010911;58;21270;-83
2021/10/07 10:39:40;;;;;;;25.90;14.07;;;;;;;15.01;81.90;101943.55;5041768;58;21179;-80
2021/10/07 10:44:51;;;;;;;21.03;14.53;;;;;;;15.03;82.88;101951.42;5102993;57;21256;-80
2021/10/07 10:50:10;;;;;;;30.43;15.27;;;;;;;15.03;82.55;101952.28;5046761;58;21135;-80
2021/10/07 10:55:29;;;;;;;19.93;11.47;;;;;;;15.00;82.43;101954.31;4968975;59;21241;-84
2021/10/07 11:00:40;;;;;;;22.20;13.80;;;;;;;14.98;81.92;101965.08;5077295;57;21190;-82
2021/10/07 11:06:05;;;;;;;21.90;14.57;;;;;;;14.93;81.48;101964.58;5091041;58;21200;-83
2021/10/07 11:11:25;;;;;;;25.63;15.50;;;;;;;14.89;81.94;101971.09;5094656;58;21232;-82
2021/10/07 11:16:33;;;;;;;19.43;14.30;;;;;;;14.94;81.48;101975.61;5096679;58;21719;-81
2021/10/07 11:21:41;;;;;;;27.00;13.73;;;;;;;14.92;82.07;101988.67;5096360;58;21183;-84
2021/10/07 11:26:46;;;;;;;21.63;12.13;;;;;;;14.94;82.30;101978.75;5093622;57;21253;-84
2021/10/07 11:31:52;;;;;;;23.57;14.83;;;;;;;14.96;81.55;101975.50;5096421;57;22528;-83
2021/10/07 11:36:58;;;;;;;18.97;13.87;;;;;;;14.96;82.38;101971.51;5092435;57;21155;-83
2021/10/07 11:42:04;;;;;;;23.07;13.13;;;;;;;15.06;82.89;101964.05;5072152;57;21478;-82
2021/10/07 11:47:15;;;;;;;26.40;16.27;;;;;;;15.21;82.92;101970.55;5077314;58;21431;-85
2021/10/07 11:52:21;;;;;;;26.53;15.87;;;;;;;15.29;83.37;101974.33;5075633;57;21151;-84
2021/10/07 11:57:27;;;;;;;25.73;15.50;;;;;;;15.32;82.75;101972.77;5073320;58;22151;-84
2021/10/07 12:02:33;;;;;;;23.70;17.03;;;;;;;15.35;82.65;101981.03;5072014;58;21514;-85
2021/10/07 12:07:39;;;;;;;21.13;14.77;;;;;;;15.24;81.45;101985.83;5072223;58;21191;-85
2021/10/07 12:13:11;;;;;;;28.97;14.90;;;;;;;15.19;81.38;101986.64;5072618;58;21199;-82
2021/10/07 12:18:18;;;;;;;28.40;16.40;;;;;;;15.12;81.13;101988.89;5072459;58;21155;-87
2021/10/07 12:23:24;;;;;;;30.60;17.03;;;;;;;15.06;80.24;101990.70;5073640;58;21160;-83
2021/10/07 12:28:31;;;;;;;33.00;16.67;;;;;;;14.96;79.93;101999.00;5075351;57;21147;-85
2021/10/07 12:33:37;;;;;;;24.83;15.33;;;;;;;14.91;80.52;102000.28;5074170;57;21119;-85
2021/10/07 12:38:56;;;;;;;25.40;15.20;;;;;;;14.90;80.00;101994.58;5082401;56;21185;-82
2021/10/07 12:44:02;;;;;;;26.83;14.30;;;;;;;14.77;80.09;101995.95;5095091;57;21636;-89
2021/10/07 12:49:08;;;;;;;26.60;14.90;;;;;;;14.72;80.70;101998.94;5093436;57;21262;-83
2021/10/07 12:54:18;;;;;;;28.03;16.83;;;;;;;14.76;81.23;102000.91;5093432;57;21181;-83
2021/10/07 12:59:24;;;;;;;23.17;14.80;;;;;;;14.80;81.28;102002.87;5094751;57;21147;-82
2021/10/07 13:04:29;;;;;;;27.73;15.60;;;;;;;14.86;81.53;102003.27;5097148;57;21171;-83
2021/10/07 13:09:39;;;;;;;21.63;11.67;;;;;;;14.94;81.77;102010.25;5095150;57;21195;-82
2021/10/07 13:14:42;;;;;;;36.37;18.53;;;;;;;14.95;81.31;102017.28;5093961;56;21166;-82
2021/10/07 13:19:48;;;;;;;23.67;14.30;;;;;;;14.91;80.20;102014.94;5095423;57;21165;-82
2021/10/07 13:24:56;;;;;;;31.63;17.10;;;;;;;14.84;80.52;102017.66;5094885;56;21199;-82
2021/10/07 13:30:01;;;;;;;43.33;18.77;;;;;;;14.86;81.18;102007.75;5094594;57;21143;-81
2021/10/07 13:35:08;;;;;;;25.93;16.73;;;;;;;14.98;80.94;102017.51;5095829;57;21171;-81
2021/10/07 13:40:14;;;;;;;31.17;17.70;;;;;;;15.02;80.07;102016.34;5065117;57;21152;-82
2021/10/07 13:45:19;;;;;;;23.30;13.30;;;;;;;14.94;79.23;102010.72;5042548;57;21168;-83
2021/10/07 13:50:25;;;;;;;26.73;15.80;;;;;;;15.03;80.43;102015.38;5070750;57;21152;-84
2021/10/07 13:55:32;;;;;;;30.73;15.13;;;;;;;15.26;79.97;102020.37;5070843;57;21175;-85
2021/10/07 14:00:40;;;;;;;29.23;15.63;;;;;;;15.34;79.48;102027.31;5071055;57;21159;-81
2021/10/07 14:05:47;;;;;;;44.30;14.77;;;;;;;15.35;78.62;102035.20;5063753;57;21160;-84
2021/10/07 14:10:53;;;;;;;20.10;12.70;;;;;;;15.34;78.48;102036.64;5051003;58;21179;-85
2021/10/07 14:16:00;;;;;;;28.83;15.97;;;;;;;15.29;77.64;102034.78;5052167;58;21191;-87
2021/10/07 14:21:06;;;;;;;21.53;14.53;;;;;;;15.20;77.76;102041.66;5073442;57;21175;-86
2021/10/07 14:26:12;;;;;;;19.43;11.93;;;;;;;15.08;77.59;102046.06;5135243;56;21085;-85
2021/10/07 14:31:18;;;;;;;21.57;15.27;;;;;;;15.08;78.24;102047.40;5190578;56;21163;-86
2021/10/07 14:36:23;;;;;;;27.57;16.30;;;;;;;15.14;78.71;102047.41;5087151;57;21160;-85
2021/10/07 14:41:30;;;;;;;24.07;14.67;;;;;;;15.24;78.33;102051.63;5100630;57;21097;-87
2021/10/07 14:46:36;;;;;;;27.77;16.27;;;;;;;15.37;78.83;102047.94;5118153;58;21544;-83
2021/10/07 14:51:42;;;;;;;30.27;15.23;;;;;;;15.37;78.49;102051.09;5118268;58;21198;-85
2021/10/07 14:56:48;;;;;;;17.20;13.20;;;;;;;15.35;78.88;102058.34;5110668;58;21132;-85
2021/10/07 15:01:54;;;;;;;25.03;13.17;;;;;;;15.27;78.35;102063.39;5109320;58;21146;-87
2021/10/07 15:07:00;;;;;;;27.33;15.10;;;;;;;15.09;77.80;102069.57;5106584;58;22377;-87
2021/10/07 15:12:07;;;;;;;30.03;15.57;;;;;;;14.88;78.21;102068.42;5108781;58;21186;-88
2021/10/07 15:17:12;;;;;;;22.50;13.70;;;;;;;14.69;78.39;102071.05;5107750;58;21206;-87
2021/10/07 15:22:20;;;;;;;18.83;13.37;;;;;;;14.57;78.53;102075.06;5105835;58;21184;-86
2021/10/07 15:27:25;;;;;;;24.93;14.87;;;;;;;14.38;78.72;102078.95;5107210;58;21278;-85
2021/10/07 15:32:31;;;;;;;27.30;14.03;;;;;;;14.28;78.73;102076.56;5108138;58;22610;-85
2021/10/07 15:37:38;;;;;;;18.93;12.97;;;;;;;14.27;78.79;102088.16;5108230;58;21516;-85
2021/10/07 15:42:45;;;;;;;33.20;14.73;;;;;;;14.24;78.42;102093.69;5078400;57;21178;-85
2021/10/07 15:47:51;;;;;;;33.00;15.20;;;;;;;14.14;78.40;102089.10;5064920;57;21128;-85
2021/10/07 15:52:57;;;;;;;25.03;12.73;;;;;;;14.07;77.78;102092.64;5064669;57;21268;-86
2021/10/07 15:58:03;;;;;;;22.17;13.83;;;;;;;13.93;77.24;102106.86;5065125;57;21140;-88
2021/10/07 16:03:11;;;;;;;35.80;21.07;;;;;;;13.86;76.87;102110.90;5065211;57;21252;-85
2021/10/07 16:08:18;;;;;;;65.77;45.80;;;;;;;13.77;76.77;102114.63;5065531;57;21235;-87
2021/10/07 16:13:25;;;;;;;44.07;23.83;;;;;;;13.69;77.28;102129.77;5065373;57;21209;-86
2021/10/07 16:18:31;;;;;;;30.67;16.27;;;;;;;13.68;77.26;102135.55;5064109;57;21230;-85
2021/10/07 16:23:38;;;;;;;44.20;24.60;;;;;;;13.57;77.29;102133.22;5062643;57;21192;-86
2021/10/07 16:28:44;;;;;;;25.63;15.37;;;;;;;13.44;77.64;102143.80;5063637;57;21194;-86
2021/10/07 16:33:51;;;;;;;22.00;14.33;;;;;;;13.42;77.84;102144.84;5065246;57;21226;-86
2021/10/07 16:38:56;;;;;;;32.23;16.20;;;;;;;13.34;77.95;102150.14;5065566;57;21455;-87
2021/10/07 16:44:02;;;;;;;29.57;17.13;;;;;;;13.30;78.61;102157.07;5065046;57;21211;-85
2021/10/07 16:49:08;;;;;;;24.40;16.23;;;;;;;13.19;78.51;102168.38;5064698;57;21558;-86
2021/10/07 16:54:14;;;;;;;28.60;17.17;;;;;;;13.07;78.92;102169.11;5064182;57;21711;-83
2021/10/07 16:59:19;;;;;;;26.83;16.10;;;;;;;13.04;79.37;102177.27;5064869;57;21132;-86
2021/10/07 17:04:25;;;;;;;31.27;15.90;;;;;;;13.08;79.51;102185.44;5065103;57;21184;-86
2021/10/07 17:09:31;;;;;;;34.53;16.43;;;;;;;13.04;79.67;102186.56;5065434;57;21278;-85
2021/10/07 17:14:38;;;;;;;26.77;14.13;;;;;;;13.05;79.91;102188.27;5065177;57;21236;-83
2021/10/07 17:19:44;;;;;;;22.43;15.00;;;;;;;13.02;79.73;102195.09;5065282;57;21176;-84
2021/10/07 17:24:50;;;;;;;29.07;15.57;;;;;;;12.99;79.90;102198.78;5094887;56;22300;-85
2021/10/07 17:29:56;;;;;;;28.27;15.53;;;;;;;12.94;79.86;102206.20;5182049;56;21699;-84
2021/10/07 17:35:02;;;;;;;30.53;14.50;;;;;;;12.89;80.13;102212.25;5181954;56;21175;-84
2021/10/07 17:40:10;;;;;;;21.17;13.10;;;;;;;12.87;80.29;102212.81;5179481;56;21257;-84
2021/10/07 17:45:17;;;;;;;30.47;16.30;;;;;;;12.86;80.33;102225.71;5178774;56;21673;-82
2021/10/07 17:50:22;;;;;;;27.47;16.97;;;;;;;12.80;80.45;102217.27;5127485;57;21194;-83
2021/10/07 17:55:28;;;;;;;31.47;16.87;;;;;;;12.79;80.47;102223.53;5126849;57;21198;-83
2021/10/07 18:00:35;;;;;;;29.70;16.63;;;;;;;12.79;80.73;102227.05;5127531;57;21558;-83
2021/10/07 18:05:41;;;;;;;17.90;13.57;;;;;;;12.73;80.56;102227.39;5135485;56;21179;-84
2021/10/07 18:10:48;;;;;;;22.90;13.73;;;;;;;12.71;80.84;102228.42;5046542;57;21194;-83
2021/10/07 18:15:53;;;;;;;27.67;16.17;;;;;;;12.65;80.84;102223.88;5050150;57;21131;-82
2021/10/07 18:20:59;;;;;;;30.40;16.87;;;;;;;12.66;81.11;102228.25;5128473;57;21127;-82
2021/10/07 18:26:05;;;;;;;21.67;13.03;;;;;;;12.75;81.23;102224.66;5126375;57;21194;-82
2021/10/07 18:31:11;;;;;;;21.47;14.33;;;;;;;12.76;81.10;102235.18;5121707;57;21194;-84
2021/10/07 18:36:17;;;;;;;25.33;13.70;;;;;;;12.71;80.90;102225.30;5127138;57;21493;-83
2021/10/07 18:41:23;;;;;;;24.40;14.20;;;;;;;12.68;81.05;102230.78;5129030;57;21190;-86
2021/10/07 18:46:29;;;;;;;25.23;16.33;;;;;;;12.68;81.23;102230.31;5128051;57;21561;-85
2021/10/07 18:51:34;;;;;;;26.53;16.03;;;;;;;12.64;81.23;102233.26;5129114;57;21543;-85
2021/10/07 18:56:41;;;;;;;23.37;15.40;;;;;;;12.66;81.47;102234.03;5129032;57;21183;-78
2021/10/07 19:01:47;;;;;;;25.93;15.37;;;;;;;12.67;81.33;102225.12;5128843;57;21217;-76
2021/10/07 19:06:53;;;;;;;22.40;16.13;;;;;;;12.74;81.54;102224.27;5133462;57;21162;-79
2021/10/07 19:11:59;;;;;;;30.63;16.23;;;;;;;12.75;81.33;102224.18;5136705;57;21216;-77
2021/10/07 19:17:06;;;;;;;37.70;18.03;;;;;;;12.69;81.55;102220.55;5112386;57;21135;-78
2021/10/07 19:22:12;;;;;;;31.53;16.17;;;;;;;12.71;81.70;102220.45;5131857;57;21530;-78
2021/10/07 19:27:18;;;;;;;31.30;19.37;;;;;;;12.71;81.41;102231.08;5109476;57;21103;-80
2021/10/07 19:32:24;;;;;;;35.17;22.30;;;;;;;12.64;81.55;102227.48;5129311;57;21170;-77
2021/10/07 19:37:29;;;;;;;61.23;28.80;;;;;;;12.55;81.51;102225.34;5129035;57;21185;-78
2021/10/07 19:42:36;;;;;;;145.53;51.67;;;;;;;12.46;81.69;102220.59;5134868;57;21202;-79
2021/10/07 19:47:42;;;;;;;73.07;29.90;;;;;;;12.41;81.95;102218.66;5113536;58;21199;-80
2021/10/07 19:52:47;;;;;;;41.07;19.50;;;;;;;12.36;82.18;102220.75;5035717;59;21818;-85
2021/10/07 19:57:53;;;;;;;75.63;27.40;;;;;;;12.30;82.15;102217.12;5044269;58;21155;-81
2021/10/07 20:02:59;;;;;;;118.80;42.63;;;;;;;12.27;82.29;102215.48;5114843;58;21148;-78
2021/10/07 20:08:05;;;;;;;46.73;21.20;;;;;;;12.26;82.49;102218.23;5115437;58;21191;-80
2021/10/07 20:13:11;;;;;;;37.37;19.23;;;;;;;12.23;82.64;102220.58;5159885;57;21194;-77
2021/10/07 20:18:16;;;;;;;32.27;17.67;;;;;;;12.26;82.55;102218.23;5114776;58;21167;-78
2021/10/07 20:23:22;;;;;;;44.77;22.53;;;;;;;12.21;82.52;102218.98;5116032;58;21194;-80
2021/10/07 20:28:28;;;;;;;39.20;22.10;;;;;;;12.19;82.71;102227.03;5093794;58;21162;-76
2021/10/07 20:38:52;;;;;;;41.43;19.37;;;;;;;12.20;82.70;102216.80;5094021;58;21158;-80
2021/10/07 20:43:58;;;;;;;28.63;17.73;;;;;;;12.17;82.81;102220.09;5093834;58;22101;-78
2021/10/07 20:49:11;;;;;;;33.07;19.53;;;;;;;12.20;83.07;102225.23;5108265;57;22443;-80
2021/10/07 20:54:14;;;;;;;46.20;22.80;;;;;;;12.27;83.02;102222.12;5108710;58;21258;-78
2021/10/07 20:59:20;;;;;;;36.73;19.40;;;;;;;12.35;83.37;102222.16;5109348;58;21187;-79
2021/10/07 21:04:26;;;;;;;27.77;18.37;;;;;;;12.42;83.50;102224.83;5109079;58;21182;-79
2021/10/07 21:09:32;;;;;;;32.20;19.23;;;;;;;12.44;83.41;102226.45;5109274;58;21175;-77
2021/10/07 21:14:38;;;;;;;32.20;18.17;;;;;;;12.48;83.16;102234.63;5109046;58;21238;-78
2021/10/07 21:19:43;;;;;;;48.43;23.20;;;;;;;12.45;82.82;102230.82;5188830;57;21166;-79
2021/10/07 21:24:49;;;;;;;42.07;21.43;;;;;;;12.49;83.26;102228.85;5215862;57;22441;-76
2021/10/07 21:29:57;;;;;;;38.20;17.10;;;;;;;12.44;83.13;102231.77;5214903;57;21174;-82
2021/10/07 21:35:03;;;;;;;29.37;16.80;;;;;;;12.37;82.90;102231.75;5215066;57;21119;-85
2021/10/07 21:40:15;;;;;;;30.30;18.10;;;;;;;12.35;82.91;102228.33;5215311;57;21526;-85
2021/10/07 21:45:21;;;;;;;162.73;66.07;;;;;;;12.38;83.04;102238.73;5214871;56;21186;-85
2021/10/07 21:50:27;;;;;;;77.90;32.13;;;;;;;12.38;83.03;102237.41;5161855;56;21451;-85
2021/10/07 21:55:33;;;;;;;123.53;59.43;;;;;;;12.24;82.37;102240.86;5108114;58;21127;-84
2021/10/07 22:00:44;;;;;;;40.70;20.07;;;;;;;12.15;82.83;102243.20;5108193;58;21136;-85
2021/10/07 22:05:50;;;;;;;65.73;33.73;;;;;;;12.08;82.74;102241.81;5109070;58;21222;-85
2021/10/07 22:10:56;;;;;;;72.33;35.70;;;;;;;11.98;82.68;102240.16;5116773;57;21206;-86
2021/10/07 22:16:02;;;;;;;74.30;35.93;;;;;;;11.86;82.69;102236.87;5123773;57;21199;-86
2021/10/07 22:21:07;;;;;;;55.73;26.67;;;;;;;11.88;83.14;102238.51;5109521;58;21170;-85
2021/10/07 22:26:13;;;;;;;35.83;18.80;;;;;;;11.88;82.94;102245.61;5143386;57;21138;-86
2021/10/07 22:31:18;;;;;;;30.17;18.20;;;;;;;11.82;83.05;102245.46;5145476;57;21190;-84
2021/10/07 22:36:24;;;;;;;29.03;17.93;;;;;;;11.78;83.06;102247.03;5101808;58;21517;-84
2021/10/07 22:41:30;;;;;;;30.63;18.60;;;;;;;11.72;82.57;102252.19;5104200;58;21705;-86
2021/10/07 22:46:37;;;;;;;34.67;16.57;;;;;;;11.66;82.66;102252.98;5086918;57;21196;-85
2021/10/07 22:51:43;;;;;;;37.33;16.93;;;;;;;11.62;82.82;102260.23;5062910;57;21267;-85
2021/10/07 22:56:49;;;;;;;29.23;17.03;;;;;;;11.52;82.62;102255.91;5063830;57;21251;-84
2021/10/07 23:01:55;;;;;;;24.10;16.03;;;;;;;11.46;82.71;102252.72;5063896;57;21215;-85
2021/10/07 23:07:00;;;;;;;35.43;18.20;;;;;;;11.44;82.67;102257.27;5063997;57;22397;-84
2021/10/07 23:12:07;;;;;;;31.47;16.23;;;;;;;11.42;82.76;102261.33;5064822;57;21179;-85
2021/10/07 23:17:14;;;;;;;33.20;16.77;;;;;;;11.36;82.56;102264.30;5064700;57;21260;-84